sensor_id;sensor_type;location;lat;lon;timestamp;temperature;humidity
10171;DHT22;5127;50.922;6.988;2022-08-27T00:02:19;23.20;58.20
10171;DHT22;5127;50.922;6.988;2022-08-27T00:04:47;23.10;58.10
10171;DHT22;5127;50.922;6.988;2022-08-27T00:07:15;23.10;58.90
10171;DHT22;5127;50.922;6.988;2022-08-27T00:09:42;23.10;58.20
10171;DHT22;5127;50.922;6.988;2022-08-27T00:12:10;23.10;58.30
10171;DHT22;5127;50.922;6.988;2022-08-27T00:14:38;23.10;58.40
10171;DHT22;5127;50.922;6.988;2022-08-27T00:17:06;23.10;58.40
10171;DHT22;5127;50.922;6.988;2022-08-27T00:19:33;23.10;58.50
10171;DHT22;5127;50.922;6.988;2022-08-27T00:22:04;23.00;58.40
10171;DHT22;5127;50.922;6.988;2022-08-27T00:24:31;23.00;58.60
10171;DHT22;5127;50.922;6.988;2022-08-27T00:26:58;23.00;58.50
10171;DHT22;5127;50.922;6.988;2022-08-27T00:29:26;23.00;58.50
10171;DHT22;5127;50.922;6.988;2022-08-27T00:31:53;23.00;58.60
10171;DHT22;5127;50.922;6.988;2022-08-27T00:34:22;22.90;58.50
10171;DHT22;5127;50.922;6.988;2022-08-27T00:36:49;22.90;58.80
10171;DHT22;5127;50.922;6.988;2022-08-27T00:39:19;22.90;58.70
10171;DHT22;5127;50.922;6.988;2022-08-27T00:41:47;22.90;58.90
10171;DHT22;5127;50.922;6.988;2022-08-27T00:44:15;22.90;58.90
10171;DHT22;5127;50.922;6.988;2022-08-27T00:46:45;22.80;58.80
10171;DHT22;5127;50.922;6.988;2022-08-27T00:49:18;22.90;59.10
10171;DHT22;5127;50.922;6.988;2022-08-27T00:51:50;22.90;59.20
10171;DHT22;5127;50.922;6.988;2022-08-27T00:54:20;22.90;59.10
10171;DHT22;5127;50.922;6.988;2022-08-27T00:56:48;22.90;59.10
10171;DHT22;5127;50.922;6.988;2022-08-27T00:59:16;22.90;59.00
10171;DHT22;5127;50.922;6.988;2022-08-27T01:01:46;22.90;59.10
10171;DHT22;5127;50.922;6.988;2022-08-27T01:04:32;22.90;59.30
10171;DHT22;5127;50.922;6.988;2022-08-27T01:07:00;22.90;59.20
10171;DHT22;5127;50.922;6.988;2022-08-27T01:09:30;23.00;59.30
10171;DHT22;5127;50.922;6.988;2022-08-27T01:11:57;22.90;59.30
10171;DHT22;5127;50.922;6.988;2022-08-27T01:14:25;22.90;59.20
10171;DHT22;5127;50.922;6.988;2022-08-27T01:16:55;22.90;59.20
10171;DHT22;5127;50.922;6.988;2022-08-27T01:19:26;22.80;59.30
10171;DHT22;5127;50.922;6.988;2022-08-27T01:22:00;22.80;59.50
10171;DHT22;5127;50.922;6.988;2022-08-27T01:24:34;22.70;59.60
10171;DHT22;5127;50.922;6.988;2022-08-27T01:27:04;22.70;59.70
10171;DHT22;5127;50.922;6.988;2022-08-27T01:29:33;22.70;59.60
10171;DHT22;5127;50.922;6.988;2022-08-27T01:32:07;22.60;59.50
10171;DHT22;5127;50.922;6.988;2022-08-27T01:34:35;22.60;60.10
10171;DHT22;5127;50.922;6.988;2022-08-27T01:37:03;22.60;59.90
10171;DHT22;5127;50.922;6.988;2022-08-27T01:39:34;22.50;59.90
10171;DHT22;5127;50.922;6.988;2022-08-27T01:42:04;22.50;60.20
10171;DHT22;5127;50.922;6.988;2022-08-27T01:44:44;22.50;60.30
10171;DHT22;5127;50.922;6.988;2022-08-27T01:47:12;22.50;60.60
10171;DHT22;5127;50.922;6.988;2022-08-27T01:49:40;22.40;60.00
10171;DHT22;5127;50.922;6.988;2022-08-27T01:52:07;22.40;60.30
10171;DHT22;5127;50.922;6.988;2022-08-27T01:54:36;22.40;60.40
10171;DHT22;5127;50.922;6.988;2022-08-27T01:57:04;22.30;60.50
10171;DHT22;5127;50.922;6.988;2022-08-27T01:59:33;22.30;60.50
10171;DHT22;5127;50.922;6.988;2022-08-27T02:02:01;22.30;60.80
10171;DHT22;5127;50.922;6.988;2022-08-27T02:04:29;22.20;60.60
10171;DHT22;5127;50.922;6.988;2022-08-27T02:06:57;22.20;60.60
10171;DHT22;5127;50.922;6.988;2022-08-27T02:09:25;22.20;60.90
10171;DHT22;5127;50.922;6.988;2022-08-27T02:11:53;22.20;60.90
10171;DHT22;5127;50.922;6.988;2022-08-27T02:14:21;22.10;61.20
10171;DHT22;5127;50.922;6.988;2022-08-27T02:16:49;22.10;61.00
10171;DHT22;5127;50.922;6.988;2022-08-27T02:19:16;22.10;60.90
10171;DHT22;5127;50.922;6.988;2022-08-27T02:21:44;22.10;61.00
10171;DHT22;5127;50.922;6.988;2022-08-27T02:24:11;22.10;61.20
10171;DHT22;5127;50.922;6.988;2022-08-27T02:26:38;22.10;61.30
10171;DHT22;5127;50.922;6.988;2022-08-27T02:29:08;22.10;61.40
10171;DHT22;5127;50.922;6.988;2022-08-27T02:31:35;22.10;61.50
10171;DHT22;5127;50.922;6.988;2022-08-27T02:34:03;22.10;61.40
10171;DHT22;5127;50.922;6.988;2022-08-27T02:36:30;22.10;61.30
10171;DHT22;5127;50.922;6.988;2022-08-27T02:38:58;22.10;61.20
10171;DHT22;5127;50.922;6.988;2022-08-27T02:41:25;22.10;61.10
10171;DHT22;5127;50.922;6.988;2022-08-27T02:43:53;22.10;61.00
10171;DHT22;5127;50.922;6.988;2022-08-27T02:46:22;22.10;61.00
10171;DHT22;5127;50.922;6.988;2022-08-27T02:48:49;22.00;61.00
10171;DHT22;5127;50.922;6.988;2022-08-27T02:51:16;22.00;60.90
10171;DHT22;5127;50.922;6.988;2022-08-27T02:53:43;22.00;60.90
10171;DHT22;5127;50.922;6.988;2022-08-27T02:56:11;22.00;60.90
10171;DHT22;5127;50.922;6.988;2022-08-27T02:58:38;22.00;60.90
10171;DHT22;5127;50.922;6.988;2022-08-27T03:01:06;22.00;60.90
10171;DHT22;5127;50.922;6.988;2022-08-27T03:03:35;22.00;60.70
10171;DHT22;5127;50.922;6.988;2022-08-27T03:06:03;22.00;60.80
10171;DHT22;5127;50.922;6.988;2022-08-27T03:08:30;22.00;60.70
10171;DHT22;5127;50.922;6.988;2022-08-27T03:10:57;22.00;60.60
10171;DHT22;5127;50.922;6.988;2022-08-27T03:13:25;21.90;60.60
10171;DHT22;5127;50.922;6.988;2022-08-27T03:15:52;21.90;60.60
10171;DHT22;5127;50.922;6.988;2022-08-27T03:18:20;21.90;60.60
10171;DHT22;5127;50.922;6.988;2022-08-27T03:20:50;21.90;60.60
10171;DHT22;5127;50.922;6.988;2022-08-27T03:23:20;21.90;60.60
10171;DHT22;5127;50.922;6.988;2022-08-27T03:25:51;21.90;60.50
10171;DHT22;5127;50.922;6.988;2022-08-27T03:28:21;21.90;60.40
10171;DHT22;5127;50.922;6.988;2022-08-27T03:30:49;21.90;60.30
10171;DHT22;5127;50.922;6.988;2022-08-27T03:33:17;21.90;60.20
10171;DHT22;5127;50.922;6.988;2022-08-27T03:35:45;21.90;60.10
10171;DHT22;5127;50.922;6.988;2022-08-27T03:38:14;21.90;60.10
10171;DHT22;5127;50.922;6.988;2022-08-27T03:40:42;21.90;60.20
10171;DHT22;5127;50.922;6.988;2022-08-27T03:43:11;21.80;60.00
10171;DHT22;5127;50.922;6.988;2022-08-27T03:45:38;21.80;60.10
10171;DHT22;5127;50.922;6.988;2022-08-27T03:48:09;21.80;60.00
10171;DHT22;5127;50.922;6.988;2022-08-27T03:50:37;21.80;60.00
10171;DHT22;5127;50.922;6.988;2022-08-27T03:53:05;21.90;60.00
10171;DHT22;5127;50.922;6.988;2022-08-27T03:55:33;21.90;60.00
10171;DHT22;5127;50.922;6.988;2022-08-27T03:58:00;21.90;60.10
10171;DHT22;5127;50.922;6.988;2022-08-27T04:00:28;21.90;60.00
10171;DHT22;5127;50.922;6.988;2022-08-27T04:02:55;21.90;59.90
10171;DHT22;5127;50.922;6.988;2022-08-27T04:05:23;21.90;59.90
10171;DHT22;5127;50.922;6.988;2022-08-27T04:07:50;21.80;59.80
10171;DHT22;5127;50.922;6.988;2022-08-27T04:10:18;21.80;59.80
10171;DHT22;5127;50.922;6.988;2022-08-27T04:12:47;21.80;59.80
10171;DHT22;5127;50.922;6.988;2022-08-27T04:15:15;21.80;59.80
10171;DHT22;5127;50.922;6.988;2022-08-27T04:17:42;21.80;59.70
10171;DHT22;5127;50.922;6.988;2022-08-27T04:20:10;21.80;59.70
10171;DHT22;5127;50.922;6.988;2022-08-27T04:22:37;21.90;59.90
10171;DHT22;5127;50.922;6.988;2022-08-27T04:25:05;21.80;59.70
10171;DHT22;5127;50.922;6.988;2022-08-27T04:27:33;21.80;59.80
10171;DHT22;5127;50.922;6.988;2022-08-27T04:30:02;21.70;59.70
10171;DHT22;5127;50.922;6.988;2022-08-27T04:32:30;21.70;59.80
10171;DHT22;5127;50.922;6.988;2022-08-27T04:34:58;21.70;59.80
10171;DHT22;5127;50.922;6.988;2022-08-27T04:37:29;21.70;59.90
10171;DHT22;5127;50.922;6.988;2022-08-27T04:39:56;21.70;60.70
10171;DHT22;5127;50.922;6.988;2022-08-27T04:42:24;21.60;59.80
10171;DHT22;5127;50.922;6.988;2022-08-27T04:44:51;21.60;60.00
10171;DHT22;5127;50.922;6.988;2022-08-27T04:47:20;21.60;60.00
10171;DHT22;5127;50.922;6.988;2022-08-27T04:49:47;21.60;60.10
10171;DHT22;5127;50.922;6.988;2022-08-27T04:52:15;21.60;60.00
10171;DHT22;5127;50.922;6.988;2022-08-27T04:54:42;21.70;60.20
10171;DHT22;5127;50.922;6.988;2022-08-27T04:57:09;21.70;60.20
10171;DHT22;5127;50.922;6.988;2022-08-27T04:59:37;21.70;60.20
10171;DHT22;5127;50.922;6.988;2022-08-27T05:02:06;21.70;60.10
10171;DHT22;5127;50.922;6.988;2022-08-27T05:04:38;21.70;60.20
10171;DHT22;5127;50.922;6.988;2022-08-27T05:07:07;21.70;60.10
10171;DHT22;5127;50.922;6.988;2022-08-27T05:09:35;21.70;60.00
10171;DHT22;5127;50.922;6.988;2022-08-27T05:12:03;21.70;60.00
10171;DHT22;5127;50.922;6.988;2022-08-27T05:14:30;21.70;60.00
10171;DHT22;5127;50.922;6.988;2022-08-27T05:16:58;21.70;60.00
10171;DHT22;5127;50.922;6.988;2022-08-27T05:19:25;21.70;60.00
10171;DHT22;5127;50.922;6.988;2022-08-27T05:21:54;21.70;60.00
10171;DHT22;5127;50.922;6.988;2022-08-27T05:24:22;21.70;60.00
10171;DHT22;5127;50.922;6.988;2022-08-27T05:26:49;21.70;59.90
10171;DHT22;5127;50.922;6.988;2022-08-27T05:29:17;21.70;60.00
10171;DHT22;5127;50.922;6.988;2022-08-27T05:31:45;21.60;60.00
10171;DHT22;5127;50.922;6.988;2022-08-27T05:34:13;21.60;60.00
10171;DHT22;5127;50.922;6.988;2022-08-27T05:36:41;21.60;60.10
10171;DHT22;5127;50.922;6.988;2022-08-27T05:39:10;21.60;60.10
10171;DHT22;5127;50.922;6.988;2022-08-27T05:41:37;21.60;60.20
10171;DHT22;5127;50.922;6.988;2022-08-27T05:44:07;21.60;60.30
10171;DHT22;5127;50.922;6.988;2022-08-27T05:46:38;21.60;60.30
10171;DHT22;5127;50.922;6.988;2022-08-27T05:49:06;21.60;60.30
10171;DHT22;5127;50.922;6.988;2022-08-27T05:51:35;21.60;60.10
10171;DHT22;5127;50.922;6.988;2022-08-27T05:54:04;21.60;60.40
10171;DHT22;5127;50.922;6.988;2022-08-27T05:56:35;21.60;60.40
10171;DHT22;5127;50.922;6.988;2022-08-27T05:59:03;21.60;60.60
10171;DHT22;5127;50.922;6.988;2022-08-27T06:01:50;21.60;60.50
10171;DHT22;5127;50.922;6.988;2022-08-27T06:04:19;21.60;60.40
10171;DHT22;5127;50.922;6.988;2022-08-27T06:06:48;21.60;60.40
10171;DHT22;5127;50.922;6.988;2022-08-27T06:09:18;21.50;60.30
10171;DHT22;5127;50.922;6.988;2022-08-27T06:11:47;21.50;60.40
10171;DHT22;5127;50.922;6.988;2022-08-27T06:14:14;21.50;60.40
10171;DHT22;5127;50.922;6.988;2022-08-27T06:16:41;21.40;60.40
10171;DHT22;5127;50.922;6.988;2022-08-27T06:19:10;21.30;60.40
10171;DHT22;5127;50.922;6.988;2022-08-27T06:21:38;21.30;60.70
10171;DHT22;5127;50.922;6.988;2022-08-27T06:24:07;21.30;60.80
10171;DHT22;5127;50.922;6.988;2022-08-27T06:26:34;21.20;60.90
10171;DHT22;5127;50.922;6.988;2022-08-27T06:29:05;21.20;61.10
10171;DHT22;5127;50.922;6.988;2022-08-27T06:31:33;21.20;61.30
10171;DHT22;5127;50.922;6.988;2022-08-27T06:34:03;21.20;61.20
10171;DHT22;5127;50.922;6.988;2022-08-27T06:36:30;21.20;61.40
10171;DHT22;5127;50.922;6.988;2022-08-27T06:38:58;21.20;61.20
10171;DHT22;5127;50.922;6.988;2022-08-27T06:41:26;21.20;61.40
10171;DHT22;5127;50.922;6.988;2022-08-27T06:43:56;21.10;61.50
10171;DHT22;5127;50.922;6.988;2022-08-27T06:46:26;21.10;61.60
10171;DHT22;5127;50.922;6.988;2022-08-27T06:48:55;21.10;62.00
10171;DHT22;5127;50.922;6.988;2022-08-27T06:51:25;21.10;61.90
10171;DHT22;5127;50.922;6.988;2022-08-27T06:53:54;21.10;61.90
10171;DHT22;5127;50.922;6.988;2022-08-27T06:56:22;21.10;61.90
10171;DHT22;5127;50.922;6.988;2022-08-27T06:58:51;21.00;61.70
10171;DHT22;5127;50.922;6.988;2022-08-27T07:01:21;21.00;61.80
10171;DHT22;5127;50.922;6.988;2022-08-27T07:03:50;21.00;62.10
10171;DHT22;5127;50.922;6.988;2022-08-27T07:06:17;21.00;62.10
10171;DHT22;5127;50.922;6.988;2022-08-27T07:08:44;21.00;62.00
10171;DHT22;5127;50.922;6.988;2022-08-27T07:11:13;21.00;62.00
10171;DHT22;5127;50.922;6.988;2022-08-27T07:13:41;21.00;62.10
10171;DHT22;5127;50.922;6.988;2022-08-27T07:16:11;21.00;62.10
10171;DHT22;5127;50.922;6.988;2022-08-27T07:18:39;20.90;62.10
10171;DHT22;5127;50.922;6.988;2022-08-27T07:21:08;20.90;62.00
10171;DHT22;5127;50.922;6.988;2022-08-27T07:23:36;20.90;62.10
10171;DHT22;5127;50.922;6.988;2022-08-27T07:26:07;20.90;62.00
10171;DHT22;5127;50.922;6.988;2022-08-27T07:28:35;20.90;62.20
10171;DHT22;5127;50.922;6.988;2022-08-27T07:31:04;20.90;62.10
10171;DHT22;5127;50.922;6.988;2022-08-27T07:33:34;20.90;62.20
10171;DHT22;5127;50.922;6.988;2022-08-27T07:36:01;20.80;62.20
10171;DHT22;5127;50.922;6.988;2022-08-27T07:38:31;20.90;62.40
10171;DHT22;5127;50.922;6.988;2022-08-27T07:40:58;20.90;62.50
10171;DHT22;5127;50.922;6.988;2022-08-27T07:43:26;20.80;62.20
10171;DHT22;5127;50.922;6.988;2022-08-27T07:46:10;20.80;62.20
10171;DHT22;5127;50.922;6.988;2022-08-27T07:48:38;20.80;62.40
10171;DHT22;5127;50.922;6.988;2022-08-27T07:51:12;20.80;62.40
10171;DHT22;5127;50.922;6.988;2022-08-27T07:53:41;20.80;62.90
10171;DHT22;5127;50.922;6.988;2022-08-27T07:56:09;20.80;62.80
10171;DHT22;5127;50.922;6.988;2022-08-27T07:58:37;20.90;62.80
10171;DHT22;5127;50.922;6.988;2022-08-27T08:01:04;20.90;62.90
10171;DHT22;5127;50.922;6.988;2022-08-27T08:03:33;20.90;62.80
10171;DHT22;5127;50.922;6.988;2022-08-27T08:06:02;21.00;62.90
10171;DHT22;5127;50.922;6.988;2022-08-27T08:08:33;21.00;63.00
10171;DHT22;5127;50.922;6.988;2022-08-27T08:11:02;21.00;62.80
10171;DHT22;5127;50.922;6.988;2022-08-27T08:13:29;21.10;62.70
10171;DHT22;5127;50.922;6.988;2022-08-27T08:15:57;21.10;62.50
10171;DHT22;5127;50.922;6.988;2022-08-27T08:18:25;21.10;62.50
10171;DHT22;5127;50.922;6.988;2022-08-27T08:20:57;21.10;62.50
10171;DHT22;5127;50.922;6.988;2022-08-27T08:23:24;21.10;62.50
10171;DHT22;5127;50.922;6.988;2022-08-27T08:25:52;21.10;62.50
10171;DHT22;5127;50.922;6.988;2022-08-27T08:28:21;21.10;62.60
10171;DHT22;5127;50.922;6.988;2022-08-27T08:30:49;21.20;62.80
10171;DHT22;5127;50.922;6.988;2022-08-27T08:33:17;21.20;62.70
10171;DHT22;5127;50.922;6.988;2022-08-27T08:35:44;21.20;62.70
10171;DHT22;5127;50.922;6.988;2022-08-27T08:38:11;21.30;62.70
10171;DHT22;5127;50.922;6.988;2022-08-27T08:40:41;21.30;62.60
10171;DHT22;5127;50.922;6.988;2022-08-27T08:43:17;21.40;62.90
10171;DHT22;5127;50.922;6.988;2022-08-27T08:45:49;21.40;63.00
10171;DHT22;5127;50.922;6.988;2022-08-27T08:48:19;21.50;62.70
10171;DHT22;5127;50.922;6.988;2022-08-27T08:50:52;21.50;62.50
10171;DHT22;5127;50.922;6.988;2022-08-27T08:53:30;21.50;62.50
10171;DHT22;5127;50.922;6.988;2022-08-27T08:56:01;21.60;62.60
10171;DHT22;5127;50.922;6.988;2022-08-27T08:58:34;21.60;62.30
10171;DHT22;5127;50.922;6.988;2022-08-27T09:01:07;21.60;62.40
10171;DHT22;5127;50.922;6.988;2022-08-27T09:03:37;21.60;62.40
10171;DHT22;5127;50.922;6.988;2022-08-27T09:06:09;21.60;62.30
10171;DHT22;5127;50.922;6.988;2022-08-27T09:08:41;21.70;62.50
10171;DHT22;5127;50.922;6.988;2022-08-27T09:11:15;21.70;62.40
10171;DHT22;5127;50.922;6.988;2022-08-27T09:13:48;21.80;62.50
10171;DHT22;5127;50.922;6.988;2022-08-27T09:16:17;21.80;62.50
10171;DHT22;5127;50.922;6.988;2022-08-27T09:18:45;21.80;62.20
10171;DHT22;5127;50.922;6.988;2022-08-27T09:21:22;21.90;62.00
10171;DHT22;5127;50.922;6.988;2022-08-27T09:23:59;21.90;62.00
10171;DHT22;5127;50.922;6.988;2022-08-27T09:26:30;21.90;61.80
10171;DHT22;5127;50.922;6.988;2022-08-27T09:29:00;22.00;61.90
10171;DHT22;5127;50.922;6.988;2022-08-27T09:31:52;22.00;61.80
10171;DHT22;5127;50.922;6.988;2022-08-27T09:34:21;22.00;61.90
10171;DHT22;5127;50.922;6.988;2022-08-27T09:36:59;22.00;61.70
10171;DHT22;5127;50.922;6.988;2022-08-27T09:39:33;22.00;61.80
10171;DHT22;5127;50.922;6.988;2022-08-27T09:42:02;22.10;61.70
10171;DHT22;5127;50.922;6.988;2022-08-27T09:44:30;22.10;61.50
10171;DHT22;5127;50.922;6.988;2022-08-27T09:47:01;22.20;61.50
10171;DHT22;5127;50.922;6.988;2022-08-27T09:49:29;22.20;61.40
10171;DHT22;5127;50.922;6.988;2022-08-27T09:51:59;22.30;61.50
10171;DHT22;5127;50.922;6.988;2022-08-27T09:54:37;22.30;61.40
10171;DHT22;5127;50.922;6.988;2022-08-27T09:57:06;22.30;61.60
10171;DHT22;5127;50.922;6.988;2022-08-27T09:59:36;22.40;61.60
10171;DHT22;5127;50.922;6.988;2022-08-27T10:02:13;22.40;61.50
10171;DHT22;5127;50.922;6.988;2022-08-27T10:04:42;22.50;61.50
10171;DHT22;5127;50.922;6.988;2022-08-27T10:07:20;22.50;61.30
10171;DHT22;5127;50.922;6.988;2022-08-27T10:09:52;22.60;61.30
10171;DHT22;5127;50.922;6.988;2022-08-27T10:12:25;22.70;61.20
10171;DHT22;5127;50.922;6.988;2022-08-27T10:14:57;22.70;61.20
10171;DHT22;5127;50.922;6.988;2022-08-27T10:17:31;22.70;61.00
10171;DHT22;5127;50.922;6.988;2022-08-27T10:20:06;22.80;61.10
10171;DHT22;5127;50.922;6.988;2022-08-27T10:22:45;22.80;60.90
10171;DHT22;5127;50.922;6.988;2022-08-27T10:25:22;22.90;61.00
10171;DHT22;5127;50.922;6.988;2022-08-27T10:27:58;22.90;61.00
10171;DHT22;5127;50.922;6.988;2022-08-27T10:30:41;23.00;60.90
10171;DHT22;5127;50.922;6.988;2022-08-27T10:33:16;23.10;60.90
10171;DHT22;5127;50.922;6.988;2022-08-27T10:35:49;23.10;61.00
10171;DHT22;5127;50.922;6.988;2022-08-27T10:38:21;23.20;61.00
10171;DHT22;5127;50.922;6.988;2022-08-27T10:40:53;23.30;60.90
10171;DHT22;5127;50.922;6.988;2022-08-27T10:43:40;23.40;60.70
10171;DHT22;5127;50.922;6.988;2022-08-27T10:46:26;23.50;60.40
10171;DHT22;5127;50.922;6.988;2022-08-27T10:49:07;23.60;60.30
10171;DHT22;5127;50.922;6.988;2022-08-27T10:51:41;23.60;60.00
10171;DHT22;5127;50.922;6.988;2022-08-27T10:54:18;23.70;60.00
10171;DHT22;5127;50.922;6.988;2022-08-27T10:56:53;23.70;59.60
10171;DHT22;5127;50.922;6.988;2022-08-27T10:59:27;23.70;59.40
10171;DHT22;5127;50.922;6.988;2022-08-27T11:02:05;23.70;59.30
10171;DHT22;5127;50.922;6.988;2022-08-27T11:04:41;23.70;59.10
10171;DHT22;5127;50.922;6.988;2022-08-27T11:07:14;23.70;59.10
10171;DHT22;5127;50.922;6.988;2022-08-27T11:09:47;23.70;59.00
10171;DHT22;5127;50.922;6.988;2022-08-27T11:12:19;23.70;58.90
10171;DHT22;5127;50.922;6.988;2022-08-27T11:14:51;23.70;58.80
10171;DHT22;5127;50.922;6.988;2022-08-27T11:17:24;23.70;58.80
10171;DHT22;5127;50.922;6.988;2022-08-27T11:20:00;23.70;58.70
10171;DHT22;5127;50.922;6.988;2022-08-27T11:22:33;23.70;58.60
10171;DHT22;5127;50.922;6.988;2022-08-27T11:25:08;23.70;58.60
10171;DHT22;5127;50.922;6.988;2022-08-27T11:27:38;23.70;58.50
10171;DHT22;5127;50.922;6.988;2022-08-27T11:30:25;23.70;58.50
10171;DHT22;5127;50.922;6.988;2022-08-27T11:32:59;23.60;58.50
10171;DHT22;5127;50.922;6.988;2022-08-27T11:35:38;23.70;58.50
10171;DHT22;5127;50.922;6.988;2022-08-27T11:38:33;23.70;58.40
10171;DHT22;5127;50.922;6.988;2022-08-27T11:41:22;23.80;58.50
10171;DHT22;5127;50.922;6.988;2022-08-27T11:43:53;23.80;58.50
10171;DHT22;5127;50.922;6.988;2022-08-27T11:46:23;23.80;58.40
10171;DHT22;5127;50.922;6.988;2022-08-27T11:48:57;23.90;58.40
10171;DHT22;5127;50.922;6.988;2022-08-27T11:51:32;23.90;58.10
10171;DHT22;5127;50.922;6.988;2022-08-27T11:54:01;24.00;58.00
10171;DHT22;5127;50.922;6.988;2022-08-27T11:56:36;24.00;58.10
10171;DHT22;5127;50.922;6.988;2022-08-27T11:59:17;24.10;57.90
10171;DHT22;5127;50.922;6.988;2022-08-27T12:01:46;24.10;57.80
10171;DHT22;5127;50.922;6.988;2022-08-27T12:04:23;24.10;57.90
10171;DHT22;5127;50.922;6.988;2022-08-27T12:07:03;24.20;57.80
10171;DHT22;5127;50.922;6.988;2022-08-27T12:09:50;24.30;57.80
10171;DHT22;5127;50.922;6.988;2022-08-27T12:12:22;24.30;57.50
10171;DHT22;5127;50.922;6.988;2022-08-27T12:14:59;24.40;57.60
10171;DHT22;5127;50.922;6.988;2022-08-27T12:17:36;24.50;57.30
10171;DHT22;5127;50.922;6.988;2022-08-27T12:20:12;24.50;57.00
10171;DHT22;5127;50.922;6.988;2022-08-27T12:22:55;24.50;56.80
10171;DHT22;5127;50.922;6.988;2022-08-27T12:25:54;24.60;56.70
10171;DHT22;5127;50.922;6.988;2022-08-27T12:28:24;24.60;56.70
10171;DHT22;5127;50.922;6.988;2022-08-27T12:30:52;24.70;57.10
10171;DHT22;5127;50.922;6.988;2022-08-27T12:33:26;24.70;57.00
10171;DHT22;5127;50.922;6.988;2022-08-27T12:35:57;24.80;56.70
10171;DHT22;5127;50.922;6.988;2022-08-27T12:38:40;24.80;56.60
10171;DHT22;5127;50.922;6.988;2022-08-27T12:41:08;24.90;56.10
10171;DHT22;5127;50.922;6.988;2022-08-27T12:43:37;25.00;56.30
10171;DHT22;5127;50.922;6.988;2022-08-27T12:46:14;25.00;56.00
10171;DHT22;5127;50.922;6.988;2022-08-27T12:48:43;25.00;55.80
10171;DHT22;5127;50.922;6.988;2022-08-27T12:51:17;25.10;55.90
10171;DHT22;5127;50.922;6.988;2022-08-27T12:53:53;25.10;55.80
10171;DHT22;5127;50.922;6.988;2022-08-27T12:56:44;25.20;55.70
10171;DHT22;5127;50.922;6.988;2022-08-27T12:59:34;25.20;55.30
10171;DHT22;5127;50.922;6.988;2022-08-27T13:02:17;25.30;55.20
10171;DHT22;5127;50.922;6.988;2022-08-27T13:04:47;25.30;54.90
10171;DHT22;5127;50.922;6.988;2022-08-27T13:07:24;25.30;55.00
10171;DHT22;5127;50.922;6.988;2022-08-27T13:09:53;25.30;54.70
10171;DHT22;5127;50.922;6.988;2022-08-27T13:12:23;25.30;54.80
10171;DHT22;5127;50.922;6.988;2022-08-27T13:14:50;25.30;54.60
10171;DHT22;5127;50.922;6.988;2022-08-27T13:17:20;25.30;54.60
10171;DHT22;5127;50.922;6.988;2022-08-27T13:19:50;25.30;54.70
10171;DHT22;5127;50.922;6.988;2022-08-27T13:22:23;25.30;54.60
10171;DHT22;5127;50.922;6.988;2022-08-27T13:24:54;25.40;54.60
10171;DHT22;5127;50.922;6.988;2022-08-27T13:27:24;25.40;54.60
10171;DHT22;5127;50.922;6.988;2022-08-27T13:29:52;25.40;54.40
10171;DHT22;5127;50.922;6.988;2022-08-27T13:32:23;25.50;54.60
10171;DHT22;5127;50.922;6.988;2022-08-27T13:34:53;25.50;54.40
10171;DHT22;5127;50.922;6.988;2022-08-27T13:37:23;25.60;54.40
10171;DHT22;5127;50.922;6.988;2022-08-27T13:39:54;25.60;54.20
10171;DHT22;5127;50.922;6.988;2022-08-27T13:42:22;25.70;54.10
10171;DHT22;5127;50.922;6.988;2022-08-27T13:44:51;25.70;54.10
10171;DHT22;5127;50.922;6.988;2022-08-27T13:47:22;25.80;53.90
10171;DHT22;5127;50.922;6.988;2022-08-27T13:49:51;25.80;53.70
10171;DHT22;5127;50.922;6.988;2022-08-27T13:52:31;25.90;53.60
10171;DHT22;5127;50.922;6.988;2022-08-27T13:55:03;25.90;53.30
10171;DHT22;5127;50.922;6.988;2022-08-27T13:57:42;25.90;53.10
10171;DHT22;5127;50.922;6.988;2022-08-27T14:00:14;25.90;52.60
10171;DHT22;5127;50.922;6.988;2022-08-27T14:02:42;25.90;52.60
10171;DHT22;5127;50.922;6.988;2022-08-27T14:05:14;25.80;52.80
10171;DHT22;5127;50.922;6.988;2022-08-27T14:07:44;25.80;52.70
10171;DHT22;5127;50.922;6.988;2022-08-27T14:10:30;25.70;52.70
10171;DHT22;5127;50.922;6.988;2022-08-27T14:13:00;25.80;52.50
10171;DHT22;5127;50.922;6.988;2022-08-27T14:15:31;25.80;52.70
10171;DHT22;5127;50.922;6.988;2022-08-27T14:17:59;25.80;52.60
10171;DHT22;5127;50.922;6.988;2022-08-27T14:20:27;25.70;52.70
10171;DHT22;5127;50.922;6.988;2022-08-27T14:22:54;25.70;52.50
10171;DHT22;5127;50.922;6.988;2022-08-27T14:25:22;25.80;52.50
10171;DHT22;5127;50.922;6.988;2022-08-27T14:27:53;25.80;52.50
10171;DHT22;5127;50.922;6.988;2022-08-27T14:30:23;25.70;52.30
10171;DHT22;5127;50.922;6.988;2022-08-27T14:32:51;25.70;52.30
10171;DHT22;5127;50.922;6.988;2022-08-27T14:35:19;25.70;52.30
10171;DHT22;5127;50.922;6.988;2022-08-27T14:37:46;25.70;52.20
10171;DHT22;5127;50.922;6.988;2022-08-27T14:40:13;25.70;52.20
10171;DHT22;5127;50.922;6.988;2022-08-27T14:42:41;25.70;52.30
10171;DHT22;5127;50.922;6.988;2022-08-27T14:45:10;25.70;52.30
10171;DHT22;5127;50.922;6.988;2022-08-27T14:47:38;25.70;52.10
10171;DHT22;5127;50.922;6.988;2022-08-27T14:50:08;25.80;52.10
10171;DHT22;5127;50.922;6.988;2022-08-27T14:52:36;25.70;52.00
10171;DHT22;5127;50.922;6.988;2022-08-27T14:55:05;25.70;52.10
10171;DHT22;5127;50.922;6.988;2022-08-27T14:57:32;25.70;52.00
10171;DHT22;5127;50.922;6.988;2022-08-27T14:59:59;25.70;51.90
10171;DHT22;5127;50.922;6.988;2022-08-27T15:02:28;25.70;51.80
10171;DHT22;5127;50.922;6.988;2022-08-27T15:04:55;25.70;51.60
10171;DHT22;5127;50.922;6.988;2022-08-27T15:07:22;25.70;51.70
10171;DHT22;5127;50.922;6.988;2022-08-27T15:09:50;25.70;51.60
10171;DHT22;5127;50.922;6.988;2022-08-27T15:12:17;25.70;51.50
10171;DHT22;5127;50.922;6.988;2022-08-27T15:14:44;25.60;51.50
10171;DHT22;5127;50.922;6.988;2022-08-27T15:17:12;25.60;51.30
10171;DHT22;5127;50.922;6.988;2022-08-27T15:19:40;25.60;51.40
10171;DHT22;5127;50.922;6.988;2022-08-27T15:22:13;25.60;51.50
10171;DHT22;5127;50.922;6.988;2022-08-27T15:24:44;25.60;51.30
10171;DHT22;5127;50.922;6.988;2022-08-27T15:27:11;25.50;51.50
10171;DHT22;5127;50.922;6.988;2022-08-27T15:29:39;25.50;51.50
10171;DHT22;5127;50.922;6.988;2022-08-27T15:32:07;25.50;51.50
10171;DHT22;5127;50.922;6.988;2022-08-27T15:34:36;25.50;51.50
10171;DHT22;5127;50.922;6.988;2022-08-27T15:37:04;25.50;51.30
10171;DHT22;5127;50.922;6.988;2022-08-27T15:39:31;25.60;51.30
10171;DHT22;5127;50.922;6.988;2022-08-27T15:41:59;25.50;51.20
10171;DHT22;5127;50.922;6.988;2022-08-27T15:44:26;25.50;51.20
10171;DHT22;5127;50.922;6.988;2022-08-27T15:46:53;25.50;51.20
10171;DHT22;5127;50.922;6.988;2022-08-27T15:49:21;25.50;51.20
10171;DHT22;5127;50.922;6.988;2022-08-27T15:51:48;25.50;51.10
10171;DHT22;5127;50.922;6.988;2022-08-27T15:54:18;25.40;51.00
10171;DHT22;5127;50.922;6.988;2022-08-27T15:56:45;25.50;50.90
10171;DHT22;5127;50.922;6.988;2022-08-27T15:59:12;25.40;51.00
10171;DHT22;5127;50.922;6.988;2022-08-27T16:01:40;25.40;50.90
10171;DHT22;5127;50.922;6.988;2022-08-27T16:04:07;25.40;50.90
10171;DHT22;5127;50.922;6.988;2022-08-27T16:06:35;25.40;50.90